CW6086 Weather Reports


Display with metric or nautical units.
time (UTC)temp
F
wind
direction
speed
MPH
gust
MPH
rain 1hr
in
rain 24hr
in
rain mn
in
humidity
%
barometer
mb
20260906224612 112 0 0.0 0.0 0.00 0.00 0.00 32 1012.5
20260906223103 113 0 0.0 0.0 0.00 0.00 0.00 32 1012.7
20260906221601 114 0 0.0 0.0 0.00 0.00 0.00 31 1012.8
20260906220136 114 0 0.0 0.0 0.00 0.00 0.00 32 1012.7
20260906214602 115 0 0.0 0.0 0.00 0.00 0.00 32 1012.6
20260906213111 115 0 0.0 0.0 0.00 0.00 0.00 33 1012.8
20260906211610 115 0 0.0 0.0 0.00 0.00 0.00 33 1013.2
20260906210114 114 0 0.0 0.0 0.00 0.00 0.00 33 1013.3
20260906204601 114 0 0.0 0.0 0.00 0.00 0.00 34 1013.5
20260906203107 114 0 0.0 0.0 0.00 0.00 0.00 33 1013.6
20260906201606 114 0 0.0 0.0 0.00 0.00 0.00 34 1013.9
20260906200105 112 0 0.0 0.0 0.00 0.00 0.00 36 1014.0
20260906194630 112 0 0.0 0.0 0.00 0.00 0.00 35 1014.1
20260906193107 110 0 0.0 0.0 0.00 0.00 0.00 37 1014.2
20260906191609 108 0 0.0 0.0 0.00 0.00 0.00 40 1014.5
20260906184611 101 0 0.0 0.0 0.00 0.00 0.00 49 1015.0
20260906183105 97 0 0.0 0.0 0.00 0.00 0.00 52 1014.9
20260906181603 95 0 0.0 0.0 0.00 0.00 0.00 54 1015.1
20260906180107 94 0 0.0 0.0 0.00 0.00 0.00 55 1015.3
20260906174605 93 0 0.0 0.0 0.00 0.00 0.00 57 1015.6
20260906173103 92 0 0.0 0.0 0.00 0.00 0.00 58 1015.8
20260906171610 91 0 0.0 0.0 0.00 0.00 0.00 60 1016.1
20260906170106 90 0 0.0 0.0 0.00 0.00 0.00 61 1016.2
20260906164604 89 0 0.0 0.0 0.00 0.00 0.00 63 1016.2
20260906163110 88 0 0.0 0.0 0.00 0.00 0.00 66 1016.1
20260906161607 87 0 0.0 0.0 0.00 0.00 0.00 69 1016.1
20260906160105 85 0 0.0 0.0 0.00 0.00 0.00 72 1016.2
20260906154607 85 0 0.0 0.0 0.00 0.00 0.00 77 1016.1
20260906153101 84 0 0.0 0.0 0.00 0.00 0.00 81 1016.2
20260906151600 83 0 0.0 0.0 0.00 0.00 0.00 83 1015.9
20260906150109 83 0 0.0 0.0 0.00 0.00 0.00 85 1015.8
20260906144622 82 0 0.0 0.0 0.00 0.00 0.00 86 1015.9
20260906143103 81 0 0.0 0.0 0.00 0.00 0.00 86 1016.0
20260906141620 81 0 0.0 0.0 0.00 0.00 0.00 86 1016.0
20260906140110 80 0 0.0 0.0 0.00 0.00 0.00 86 1015.9
20260906134606 80 0 0.0 0.0 0.00 0.00 0.00 86 1015.8
20260906133103 0 0 0.0 0.0 0.00 0.00 0.00 1015.9
20260906131559 0 0 0.0 0.0 0.00 0.00 0.00 1015.9
20260906130104 0 0 0.0 0.0 0.00 0.00 0.00 1015.7
20260906124601 0 0 0.0 0.0 0.00 0.00 0.00 1015.5
20260906123105 0 0 0.0 0.0 0.00 0.00 0.00 1015.5
20260906121604 0 0 0.0 0.0 0.00 0.00 0.00 1015.3
20260906120107 79 0 0.0 0.0 0.00 0.00 0.00 83 1015.2
20260906114606 80 0 0.0 0.0 0.00 0.00 0.00 83 1015.0
20260906113105 80 0 0.0 0.0 0.00 0.00 0.00 82 1015.0
20260906111604 80 0 0.0 0.0 0.00 0.00 0.00 82 1014.9
20260906110104 80 0 0.0 0.0 0.00 0.00 0.00 81 1014.7
20260906104624 80 0 0.0 0.0 0.00 0.00 0.00 81 1014.6
20260906103101 80 0 0.0 0.0 0.00 0.00 0.00 81 1014.5
20260906101603 81 0 0.0 0.0 0.00 0.00 0.00 80 1014.5
20260906094643 82 0 0.0 0.0 0.00 0.00 0.00 78 1014.3
20260906093108 82 0 0.0 0.0 0.00 0.00 0.00 77 1014.0
20260906091619 82 0 0.0 0.0 0.00 0.00 0.00 76 1014.0
20260906090105 83 0 0.0 0.0 0.00 0.00 0.00 75 1013.9
20260906084607 83 0 0.0 0.0 0.00 0.00 0.00 75 1013.8
20260906083105 83 0 0.0 0.0 0.00 0.00 0.00 74 1013.8
20260906081605 83 0 0.0 0.0 0.00 0.00 0.00 73 1013.7
20260906080334 83 0 0.0 0.0 0.00 0.00 0.00 72 1013.7
20260906074559 84 0 0.0 0.0 0.00 0.00 0.00 72 1013.9
20260906073100 84 0 0.0 0.0 0.00 0.00 0.00 71 1013.8
20260906071606 84 0 0.0 0.0 0.00 0.00 0.00 71 1013.8
20260906070104 85 0 0.0 0.0 0.00 0.00 0.00 70 1014.2
20260906064602 85 0 0.0 0.0 0.00 0.00 0.00 69 1014.2
20260906063100 85 0 0.0 0.0 0.00 0.00 0.00 68 1014.2
20260906061606 85 0 0.0 0.0 0.00 0.00 0.00 68 1014.1
20260906060111 86 0 0.0 0.0 0.00 0.00 0.00 68 1014.3
20260906054604 86 0 0.0 0.0 0.00 0.00 0.00 66 1014.1
20260906053107 86 0 0.0 0.0 0.00 0.00 0.00 66 1014.1
20260906051605 86 0 0.0 0.0 0.00 0.00 0.00 66 1014.0
20260906050133 87 0 0.0 0.0 0.00 0.00 0.00 66 1014.0
20260906044606 87 0 0.0 0.0 0.00 0.00 0.00 65 1014.0
20260906043105 87 0 0.0 0.0 0.00 0.00 0.00 65 1014.2
20260906041605 88 0 0.0 0.0 0.00 0.00 0.00 64 1014.2
20260906040139 88 0 0.0 0.0 0.00 0.00 0.00 63 1014.1
20260906034607 88 0 0.0 0.0 0.00 0.00 0.00 63 1014.3
20260906033101 89 0 0.0 0.0 0.00 0.00 0.00 62 1014.0
20260906031605 89 0 0.0 0.0 0.00 0.00 0.00 61 1014.4
20260906030111 90 0 0.0 0.0 0.00 0.00 0.00 61 1014.4
20260906024608 90 0 0.0 0.0 0.00 0.00 0.00 59 1014.1
20260906023104 91 0 0.0 0.0 0.00 0.00 0.00 57 1013.9
20260906021607 92 0 0.0 0.0 0.00 0.00 0.00 56 1013.7
20260906020107 93 0 0.0 0.0 0.00 0.00 0.00 54 1013.6
20260906014603 94 0 0.0 0.0 0.00 0.00 0.00 53 1013.4
20260906013103 95 0 0.0 0.0 0.00 0.00 0.00 51 1013.3
20260906011604 96 0 0.0 0.0 0.00 0.00 0.00 49 1012.8
20260906010108 97 0 0.0 0.0 0.00 0.00 0.00 48 1012.7
20260906004606 98 0 0.0 0.0 0.00 0.00 0.00 45 1012.3
20260906003105 99 0 0.0 0.0 0.00 0.00 0.00 44 1012.3
20260906001615 101 0 0.0 0.0 0.00 0.00 0.00 42 1012.4
20260906000108 102 0 0.0 0.0 0.00 0.00 0.00 41 1012.3
20260905234603 103 0 0.0 0.0 0.00 0.00 0.00 39 1012.2
20260905233112 106 0 0.0 0.0 0.00 0.00 0.00 38 1012.1
20260905231607 108 0 0.0 0.0 0.00 0.00 0.00 35 1012.3
20260905230115 110 0 0.0 0.0 0.00 0.00 0.00 33 1012.3